createdAt,value
2016-08-20T00:00:37.153Z,996.79
2016-08-20T00:01:48.723Z,996.79
2016-08-20T00:03:01.009Z,996.78
2016-08-20T00:04:12.574Z,996.79
2016-08-20T00:05:24.140Z,996.76
2016-08-20T00:06:35.711Z,996.75
2016-08-20T00:07:47.994Z,996.72
2016-08-20T00:09:00.261Z,996.68
2016-08-20T00:10:11.817Z,996.67
2016-08-20T00:11:24.081Z,996.67
2016-08-20T00:12:36.375Z,996.65
2016-08-20T00:13:47.957Z,996.65
2016-08-20T00:15:00.223Z,996.67
2016-08-20T00:16:11.792Z,996.67
2016-08-20T00:17:24.077Z,996.65
2016-08-20T00:18:36.368Z,996.67
2016-08-20T00:19:48.622Z,996.66
2016-08-20T00:21:00.203Z,996.65
2016-08-20T00:22:12.471Z,996.64
2016-08-20T00:23:24.037Z,996.62
2016-08-20T00:24:36.309Z,996.65
2016-08-20T00:25:47.174Z,996.65
2016-08-20T00:26:57.334Z,996.64
2016-08-20T00:28:08.883Z,996.62
2016-08-20T00:29:19.769Z,996.61
2016-08-20T00:30:32.037Z,996.57
2016-08-20T00:31:43.609Z,996.54
2016-08-20T00:32:53.776Z,996.53
2016-08-20T00:34:05.352Z,996.51
2016-08-20T00:35:16.918Z,996.5
2016-08-20T00:36:28.486Z,996.51
2016-08-20T00:37:40.748Z,996.52
2016-08-20T00:38:52.999Z,996.54
2016-08-20T00:40:05.261Z,996.48
2016-08-20T00:41:17.533Z,996.47
2016-08-20T00:42:29.106Z,996.49
2016-08-20T00:43:41.363Z,996.49
2016-08-20T00:44:52.934Z,996.49
2016-08-20T00:46:05.209Z,996.53
2016-08-20T00:47:16.778Z,996.52
2016-08-20T00:48:27.647Z,996.53
2016-08-20T00:49:38.498Z,996.56
2016-08-20T00:50:49.346Z,996.56
2016-08-20T00:52:01.618Z,996.59
2016-08-20T00:53:13.877Z,996.6
2016-08-20T00:54:25.452Z,996.59
2016-08-20T00:55:37.022Z,996.6
2016-08-20T00:56:47.897Z,996.56
2016-08-20T00:58:00.167Z,996.58
2016-08-20T00:59:11.728Z,996.58
2016-08-20T01:00:22.580Z,996.61
2016-08-20T01:01:34.139Z,996.63
2016-08-20T01:02:46.411Z,996.66
2016-08-20T01:03:57.267Z,996.64
2016-08-20T01:05:09.554Z,996.62
2016-08-20T01:06:21.115Z,996.65
2016-08-20T01:07:33.412Z,996.61
2016-08-20T01:08:44.264Z,996.61
2016-08-20T01:09:56.534Z,996.61
2016-08-20T01:11:08.816Z,996.61
2016-08-20T01:12:19.685Z,996.6
2016-08-20T01:13:31.956Z,996.57
2016-08-20T01:14:44.213Z,996.59
2016-08-20T01:15:55.075Z,996.58
2016-08-20T01:17:06.630Z,996.59
2016-08-20T01:18:18.198Z,996.59
2016-08-20T01:19:27.671Z,996.59
2016-08-20T01:20:38.522Z,996.61
2016-08-20T01:21:49.378Z,996.65
2016-08-20T01:23:01.641Z,996.63
2016-08-20T01:24:13.901Z,996.64
2016-08-20T01:25:24.755Z,996.63
2016-08-20T01:26:36.330Z,996.64
2016-08-20T01:27:47.902Z,996.62
2016-08-20T01:29:00.151Z,996.64
2016-08-20T01:30:11.731Z,996.65
2016-08-20T01:31:23.287Z,996.65
2016-08-20T01:32:35.569Z,996.65
2016-08-20T01:33:47.131Z,996.63
2016-08-20T01:34:58.699Z,996.64
2016-08-20T01:36:10.970Z,996.66
2016-08-20T01:37:23.261Z,996.67
2016-08-20T01:38:34.837Z,996.64
2016-08-20T01:39:46.406Z,996.65
2016-08-20T01:40:57.968Z,996.61
2016-08-20T01:42:09.524Z,996.62
2016-08-20T01:43:21.084Z,996.65
2016-08-20T01:44:31.951Z,996.61
2016-08-20T01:45:43.530Z,996.64
2016-08-20T01:46:55.802Z,996.65
2016-08-20T01:48:07.366Z,996.63
2016-08-20T01:49:18.923Z,996.63
2016-08-20T01:50:31.199Z,996.63
2016-08-20T01:51:42.759Z,996.66
2016-08-20T01:52:55.025Z,996.61
2016-08-20T01:54:05.882Z,996.63
2016-08-20T01:55:17.452Z,996.62
2016-08-20T01:56:29.018Z,996.6
2016-08-20T01:57:40.602Z,996.61
2016-08-20T01:58:51.458Z,996.62
2016-08-20T02:00:03.730Z,996.63
2016-08-20T02:01:15.998Z,996.63
2016-08-20T02:02:27.559Z,996.68
2016-08-20T02:03:39.123Z,996.67
2016-08-20T02:04:51.393Z,996.65
2016-08-20T02:06:03.678Z,996.69
2016-08-20T02:07:15.929Z,996.72
2016-08-20T02:08:26.792Z,996.67
2016-08-20T02:09:37.645Z,996.69
2016-08-20T02:10:49.922Z,996.71
2016-08-20T02:12:00.788Z,996.68
2016-08-20T02:13:10.939Z,996.71
2016-08-20T02:14:21.820Z,996.7
2016-08-20T02:15:34.097Z,996.69
2016-08-20T02:16:45.658Z,996.73
2016-08-20T02:17:57.931Z,996.68
2016-08-20T02:19:10.188Z,996.68
2016-08-20T02:20:22.471Z,996.68
2016-08-20T02:21:34.021Z,996.65
2016-08-20T02:22:45.583Z,996.7
2016-08-20T02:23:56.441Z,996.68
2016-08-20T02:25:07.999Z,996.69
2016-08-20T02:26:19.564Z,996.66
2016-08-20T02:27:31.831Z,996.68
2016-08-20T02:28:44.090Z,996.67
2016-08-20T02:29:56.387Z,996.66
2016-08-20T02:31:07.946Z,996.66
2016-08-20T02:32:20.213Z,996.69
2016-08-20T02:33:31.797Z,996.66
2016-08-20T02:34:44.072Z,996.67
2016-08-20T02:35:56.338Z,996.68
2016-08-20T02:37:08.610Z,996.69
2016-08-20T02:38:20.169Z,996.66
2016-08-20T02:39:31.735Z,996.69
2016-08-20T02:40:43.986Z,996.69
2016-08-20T02:41:56.252Z,996.7
2016-08-20T02:43:08.515Z,996.66
2016-08-20T02:44:19.365Z,996.7
2016-08-20T02:45:30.226Z,996.69
2016-08-20T02:46:41.784Z,996.67
2016-08-20T02:47:52.646Z,996.67
2016-08-20T02:49:04.201Z,996.63
2016-08-20T02:50:16.465Z,996.63
2016-08-20T02:51:28.043Z,996.61
2016-08-20T02:52:38.904Z,996.66
2016-08-20T02:53:51.165Z,996.62
2016-08-20T02:55:02.731Z,996.62
2016-08-20T02:56:14.295Z,996.58
2016-08-20T02:57:25.157Z,996.6
2016-08-20T02:58:36.717Z,996.58
2016-08-20T02:59:48.996Z,996.59
2016-08-20T03:01:01.259Z,996.61
2016-08-20T03:02:13.518Z,996.62
2016-08-20T03:03:25.775Z,996.62
2016-08-20T03:04:37.356Z,996.62
2016-08-20T03:05:48.213Z,996.63
2016-08-20T03:07:00.493Z,996.63
2016-08-20T03:08:11.351Z,996.63
2016-08-20T03:09:22.912Z,996.65
2016-08-20T03:10:35.182Z,996.63
2016-08-20T03:11:46.046Z,996.68
2016-08-20T03:12:58.320Z,996.67
2016-08-20T03:14:10.574Z,996.66
2016-08-20T03:15:22.152Z,996.66
2016-08-20T03:16:33.713Z,996.69
2016-08-20T03:17:45.266Z,996.71
2016-08-20T03:18:57.522Z,996.68
2016-08-20T03:20:09.795Z,996.71
2016-08-20T03:21:22.055Z,996.73
2016-08-20T03:22:32.907Z,996.74
2016-08-20T03:23:44.463Z,996.74
2016-08-20T03:24:56.735Z,996.76
2016-08-20T03:26:08.303Z,996.73
2016-08-20T03:27:19.861Z,996.71
2016-08-20T03:28:31.413Z,996.7
2016-08-20T03:29:43.675Z,996.66
2016-08-20T03:30:55.239Z,996.67
2016-08-20T03:32:06.093Z,996.65
2016-08-20T03:33:18.369Z,996.66
2016-08-20T03:34:30.630Z,996.61
2016-08-20T03:35:41.504Z,996.61
2016-08-20T03:36:53.071Z,996.65
2016-08-20T03:38:05.348Z,996.62
2016-08-20T03:39:15.537Z,996.6
2016-08-20T03:40:27.803Z,996.64
2016-08-20T03:41:38.667Z,996.62
2016-08-20T03:42:50.943Z,996.64
2016-08-20T03:44:01.795Z,996.63
2016-08-20T03:45:14.042Z,996.65
2016-08-20T03:46:26.313Z,996.64
2016-08-20T03:47:38.574Z,996.63
2016-08-20T03:48:50.355Z,996.64
2016-08-20T03:50:01.924Z,996.65
2016-08-20T03:51:14.182Z,996.68
2016-08-20T03:52:26.442Z,996.71
2016-08-20T03:53:37.985Z,996.72
2016-08-20T03:54:48.850Z,996.73
2016-08-20T03:56:00.418Z,996.76
2016-08-20T03:57:12.684Z,996.78
2016-08-20T03:58:24.251Z,996.75
2016-08-20T03:59:36.513Z,996.75
2016-08-20T04:00:48.796Z,996.76
2016-08-20T04:02:00.362Z,996.78
2016-08-20T04:03:11.918Z,996.76
2016-08-20T04:04:22.764Z,996.77
2016-08-20T04:05:34.327Z,996.75
2016-08-20T04:06:45.188Z,996.82
2016-08-20T04:07:57.457Z,996.82
2016-08-20T04:09:09.735Z,996.85
2016-08-20T04:10:22.004Z,996.84
2016-08-20T04:11:32.865Z,996.85
2016-08-20T04:12:45.137Z,996.82
2016-08-20T04:13:56.695Z,996.86
2016-08-20T04:15:08.949Z,996.86
2016-08-20T04:16:21.217Z,996.88
2016-08-20T04:17:32.764Z,996.93
2016-08-20T04:18:44.329Z,996.94
2016-08-20T04:19:56.597Z,996.93
2016-08-20T04:21:08.895Z,996.92
2016-08-20T04:22:20.456Z,996.94
2016-08-20T04:23:32.721Z,996.99
2016-08-20T04:24:44.276Z,997
2016-08-20T04:25:55.879Z,997.01
2016-08-20T04:27:07.442Z,996.96
2016-08-20T04:28:19.725Z,996.98
2016-08-20T04:29:31.288Z,996.99
2016-08-20T04:30:43.550Z,996.99
2016-08-20T04:31:55.106Z,996.98
2016-08-20T04:33:05.967Z,997.06
2016-08-20T04:34:17.530Z,997.07
2016-08-20T04:35:29.787Z,997.11
2016-08-20T04:36:42.055Z,997.13
2016-08-20T04:37:54.335Z,997.07
2016-08-20T04:39:05.196Z,997.08
2016-08-20T04:40:17.454Z,997.09
2016-08-20T04:41:29.010Z,997.1
2016-08-20T04:42:40.568Z,997.16
2016-08-20T04:43:52.129Z,997.15
2016-08-20T04:45:03.681Z,997.15
2016-08-20T04:46:14.551Z,997.19
2016-08-20T04:47:24.014Z,997.15
2016-08-20T04:48:34.879Z,997.22
2016-08-20T04:49:46.442Z,997.23
2016-08-20T04:50:57.313Z,997.23
2016-08-20T04:52:08.871Z,997.23
2016-08-20T04:53:21.123Z,997.26
2016-08-20T04:54:32.696Z,997.27
2016-08-20T04:55:44.258Z,997.3
2016-08-20T04:56:56.523Z,997.31
2016-08-20T04:58:08.804Z,997.4
2016-08-20T04:59:21.084Z,997.39
2016-08-20T05:00:31.934Z,997.44
2016-08-20T05:01:42.790Z,997.42
2016-08-20T05:02:54.355Z,997.49
2016-08-20T05:04:05.914Z,997.49
2016-08-20T05:05:18.221Z,997.51
2016-08-20T05:06:29.792Z,997.51
2016-08-20T05:07:40.654Z,997.53
2016-08-20T05:08:52.221Z,997.54
2016-08-20T05:10:03.783Z,997.56
2016-08-20T05:11:16.070Z,997.58
2016-08-20T05:12:27.625Z,997.6
2016-08-20T05:13:39.177Z,997.61
2016-08-20T05:14:49.347Z,997.59
2016-08-20T05:16:00.920Z,997.65
2016-08-20T05:17:11.802Z,997.62
2016-08-20T05:18:23.370Z,997.64
2016-08-20T05:19:34.950Z,997.68
2016-08-20T05:20:47.215Z,997.7
2016-08-20T05:21:59.469Z,997.75
2016-08-20T05:23:11.035Z,997.75
2016-08-20T05:24:21.203Z,997.79
2016-08-20T05:25:33.476Z,997.8
2016-08-20T05:26:45.028Z,997.83
2016-08-20T05:27:55.882Z,997.87
2016-08-20T05:29:08.145Z,997.87
2016-08-20T05:30:20.402Z,997.89
2016-08-20T05:31:32.663Z,997.92
2016-08-20T05:32:44.935Z,997.94
2016-08-20T05:33:57.225Z,997.94
2016-08-20T05:35:08.788Z,997.92
2016-08-20T05:36:19.632Z,997.92
2016-08-20T05:37:31.888Z,997.94
2016-08-20T05:38:44.154Z,997.93
2016-08-20T05:39:56.424Z,997.95
2016-08-20T05:41:07.986Z,997.97
2016-08-20T05:42:19.553Z,997.99
2016-08-20T05:43:31.837Z,997.96
2016-08-20T05:44:44.102Z,998.02
2016-08-20T05:45:56.365Z,998.01
2016-08-20T05:47:07.926Z,998.03
2016-08-20T05:48:19.488Z,998
2016-08-20T05:49:31.049Z,998
2016-08-20T05:50:41.903Z,998
2016-08-20T05:51:54.178Z,998
2016-08-20T05:53:05.739Z,997.99
2016-08-20T05:54:17.306Z,998.04
2016-08-20T05:55:28.165Z,998
2016-08-20T05:56:39.735Z,997.99
2016-08-20T05:57:52.002Z,997.97
2016-08-20T05:59:02.911Z,998.02
2016-08-20T06:00:14.487Z,998
2016-08-20T06:01:26.767Z,997.99
2016-08-20T06:02:38.334Z,998.01
2016-08-20T06:03:49.905Z,998.01
2016-08-20T06:05:01.477Z,997.96
2016-08-20T06:06:13.038Z,997.96
2016-08-20T06:07:24.593Z,997.97
2016-08-20T06:08:36.865Z,997.95
2016-08-20T06:09:47.738Z,997.98
2016-08-20T06:10:59.306Z,997.95
2016-08-20T06:12:10.881Z,997.94
2016-08-20T06:13:22.440Z,997.93
2016-08-20T06:14:34.712Z,997.92
2016-08-20T06:15:46.268Z,997.9
2016-08-20T06:16:58.536Z,997.97
2016-08-20T06:18:09.403Z,997.97
2016-08-20T06:19:20.970Z,998.01
2016-08-20T06:20:33.249Z,997.98
2016-08-20T06:21:44.813Z,997.96
2016-08-20T06:22:57.108Z,998.01
2016-08-20T06:24:07.975Z,998.01
2016-08-20T06:25:20.258Z,998
2016-08-20T06:26:32.512Z,998.02
2016-08-20T06:27:44.784Z,998.02
2016-08-20T06:28:55.658Z,998.03
2016-08-20T06:30:07.225Z,998.06
2016-08-20T06:31:19.496Z,998.07
2016-08-20T06:32:29.674Z,998.09
2016-08-20T06:33:41.240Z,998.12
2016-08-20T06:34:53.506Z,998.09
2016-08-20T06:36:05.071Z,998.13
2016-08-20T06:37:17.327Z,998.19
2016-08-20T06:38:29.592Z,998.15
2016-08-20T06:39:41.846Z,998.13
2016-08-20T06:40:54.123Z,998.13
2016-08-20T06:42:05.708Z,998.12
2016-08-20T06:43:17.966Z,998.14
2016-08-20T06:44:28.838Z,998.1
2016-08-20T06:45:40.404Z,998.1
2016-08-20T06:46:51.260Z,998.13
2016-08-20T06:48:02.812Z,998.16
2016-08-20T06:49:14.385Z,998.18
2016-08-20T06:50:24.544Z,998.17
2016-08-20T06:51:36.113Z,998.23
2016-08-20T06:52:48.394Z,998.27
2016-08-20T06:53:58.541Z,998.26
2016-08-20T06:55:10.808Z,998.3
2016-08-20T06:56:22.360Z,998.3
2016-08-20T06:57:34.617Z,998.34
2016-08-20T06:58:46.889Z,998.36
2016-08-20T06:59:59.146Z,998.32
2016-08-20T07:01:10.707Z,998.33
2016-08-20T07:02:22.974Z,998.3
2016-08-20T07:03:33.840Z,998.34
2016-08-20T07:04:44.704Z,998.35
2016-08-20T07:05:56.968Z,998.36
2016-08-20T07:07:09.245Z,998.33
2016-08-20T07:08:20.786Z,998.35
2016-08-20T07:09:32.349Z,998.31
2016-08-20T07:10:43.914Z,998.32
2016-08-20T07:11:56.187Z,998.34
2016-08-20T07:13:07.770Z,998.3
2016-08-20T07:14:20.033Z,998.33
2016-08-20T07:15:31.597Z,998.29
2016-08-20T07:16:42.464Z,998.3
2016-08-20T07:17:54.042Z,998.3
2016-08-20T07:19:06.303Z,998.31
2016-08-20T07:20:18.579Z,998.3
2016-08-20T07:21:30.836Z,998.37
2016-08-20T07:22:42.422Z,998.42
2016-08-20T07:23:54.709Z,998.41
2016-08-20T07:25:06.263Z,998.47
2016-08-20T07:26:18.538Z,998.43
2016-08-20T07:27:30.097Z,998.39
2016-08-20T07:28:42.368Z,998.38
2016-08-20T07:29:54.643Z,998.4
2016-08-20T07:31:06.907Z,998.38
2016-08-20T07:32:19.169Z,998.38
2016-08-20T07:33:30.729Z,998.43
2016-08-20T07:34:43.010Z,998.41
2016-08-20T07:35:55.293Z,998.44
2016-08-20T07:37:06.876Z,998.46
2016-08-20T07:38:18.428Z,998.45
2016-08-20T07:39:30.733Z,998.48
2016-08-20T07:40:42.294Z,998.49
2016-08-20T07:41:53.853Z,998.53
2016-08-20T07:43:06.123Z,998.56
2016-08-20T07:44:18.405Z,998.57
2016-08-20T07:45:29.989Z,998.6
2016-08-20T07:46:42.263Z,998.55
2016-08-20T07:47:53.826Z,998.57
2016-08-20T07:49:04.701Z,998.59
2016-08-20T07:50:16.985Z,998.62
2016-08-20T07:51:29.248Z,998.59
2016-08-20T07:52:41.513Z,998.55
2016-08-20T07:53:53.795Z,998.58
2016-08-20T07:55:06.066Z,998.59
2016-08-20T07:56:18.339Z,998.56
2016-08-20T07:57:29.913Z,998.58
2016-08-20T07:58:42.197Z,998.59
2016-08-20T07:59:54.498Z,998.62
2016-08-20T08:01:06.260Z,998.57
2016-08-20T08:02:17.834Z,998.58
2016-08-20T08:03:30.148Z,998.52
2016-08-20T08:04:42.422Z,998.54
2016-08-20T08:05:53.302Z,998.54
2016-08-20T08:07:05.608Z,998.48
2016-08-20T08:08:17.885Z,998.55
2016-08-20T08:09:30.171Z,998.49
2016-08-20T08:10:42.449Z,998.49
2016-08-20T08:11:54.748Z,998.52
2016-08-20T08:13:07.020Z,998.5
2016-08-20T08:14:19.282Z,998.55
2016-08-20T08:15:31.582Z,998.54
2016-08-20T08:16:43.153Z,998.55
2016-08-20T08:17:55.426Z,998.51
2016-08-20T08:19:07.709Z,998.52
2016-08-20T08:20:19.986Z,998.48
2016-08-20T08:21:32.323Z,998.52
2016-08-20T08:22:44.603Z,998.48
2016-08-20T08:23:55.512Z,998.49
2016-08-20T08:25:07.818Z,998.43
2016-08-20T08:26:20.089Z,998.42
2016-08-20T08:27:31.654Z,998.46
2016-08-20T08:28:43.935Z,998.41
2016-08-20T08:29:56.214Z,998.45
2016-08-20T08:31:08.528Z,998.48
2016-08-20T08:32:20.126Z,998.51
2016-08-20T08:33:32.389Z,998.54
2016-08-20T08:34:43.281Z,998.56
2016-08-20T08:35:54.856Z,998.56
2016-08-20T08:37:07.129Z,998.55
2016-08-20T08:38:19.417Z,998.55
2016-08-20T08:39:31.693Z,998.55
2016-08-20T08:40:43.381Z,998.52
2016-08-20T08:41:54.948Z,998.53
2016-08-20T08:43:07.227Z,998.51
2016-08-20T08:44:18.810Z,998.56
2016-08-20T08:45:28.965Z,998.51
2016-08-20T08:46:39.152Z,998.53
2016-08-20T08:47:51.442Z,998.51
2016-08-20T08:49:03.016Z,998.53
2016-08-20T08:50:14.597Z,998.61
2016-08-20T08:51:26.184Z,998.55
2016-08-20T08:52:38.520Z,998.56
2016-08-20T08:53:50.811Z,998.57
2016-08-20T08:55:03.101Z,998.59
2016-08-20T08:56:15.386Z,998.57
2016-08-20T08:57:26.979Z,998.56
2016-08-20T08:58:39.251Z,998.57
2016-08-20T08:59:50.822Z,998.57
2016-08-20T09:01:03.157Z,998.5
2016-08-20T09:02:15.670Z,998.52
2016-08-20T09:03:27.947Z,998.5
2016-08-20T09:04:40.229Z,998.5
2016-08-20T09:05:52.510Z,998.5
2016-08-20T09:07:04.803Z,998.48
2016-08-20T09:08:15.685Z,998.49
2016-08-20T09:09:27.260Z,998.51
2016-08-20T09:10:38.830Z,998.52
2016-08-20T09:11:49.926Z,998.52
2016-08-20T09:13:01.512Z,998.52
2016-08-20T09:14:13.103Z,998.5
2016-08-20T09:15:25.426Z,998.53
2016-08-20T09:16:36.294Z,998.54
2016-08-20T09:17:47.888Z,998.53
2016-08-20T09:19:00.166Z,998.59
2016-08-20T09:20:11.052Z,998.62
2016-08-20T09:21:23.355Z,998.63
2016-08-20T09:22:34.966Z,998.72
2016-08-20T09:23:47.338Z,998.68
2016-08-20T09:24:58.932Z,998.66
2016-08-20T09:26:11.221Z,998.67
2016-08-20T09:27:22.812Z,998.63
2016-08-20T09:28:35.103Z,998.65
2016-08-20T09:29:47.401Z,998.66
2016-08-20T09:30:59.684Z,998.61
2016-08-20T09:32:11.286Z,998.66
2016-08-20T09:33:22.170Z,998.68
2016-08-20T09:34:33.753Z,998.65
2016-08-20T09:35:46.033Z,998.65
2016-08-20T09:36:58.291Z,998.62
2016-08-20T09:38:09.220Z,998.59
2016-08-20T09:39:20.813Z,998.61
2016-08-20T09:40:32.418Z,998.61
2016-08-20T09:41:44.696Z,998.61
2016-08-20T09:42:56.290Z,998.59
2016-08-20T09:44:08.553Z,998.58
2016-08-20T09:45:20.828Z,998.62
2016-08-20T09:46:33.116Z,998.64
2016-08-20T09:47:44.002Z,998.65
2016-08-20T09:48:56.285Z,998.61
2016-08-20T09:50:07.868Z,998.65
2016-08-20T09:51:18.754Z,998.61
2016-08-20T09:52:30.335Z,998.65
2016-08-20T09:53:42.626Z,998.6
2016-08-20T09:54:54.204Z,998.61
2016-08-20T09:56:05.775Z,998.64
2016-08-20T09:57:17.360Z,998.63
2016-08-20T09:58:29.644Z,998.62
2016-08-20T09:59:41.955Z,998.63
2016-08-20T10:00:53.537Z,998.57
2016-08-20T10:02:05.126Z,998.57
2016-08-20T10:03:17.439Z,998.54
2016-08-20T10:04:29.716Z,998.55
2016-08-20T10:05:40.859Z,998.53
2016-08-20T10:06:52.663Z,998.5
2016-08-20T10:08:04.949Z,998.47
2016-08-20T10:09:16.527Z,998.46
2016-08-20T10:10:26.712Z,998.47
2016-08-20T10:11:39.028Z,998.47
2016-08-20T10:12:50.630Z,998.42
2016-08-20T10:14:02.204Z,998.47
2016-08-20T10:15:13.089Z,998.48
2016-08-20T10:16:24.679Z,998.43
2016-08-20T10:17:36.256Z,998.46
2016-08-20T10:18:47.854Z,998.42
2016-08-20T10:19:59.457Z,998.45
2016-08-20T10:21:11.052Z,998.44
2016-08-20T10:22:21.931Z,998.45
2016-08-20T10:23:33.516Z,998.42
2016-08-20T10:24:45.106Z,998.43
2016-08-20T10:25:57.421Z,998.4
2016-08-20T10:27:09.231Z,998.39
2016-08-20T10:28:21.533Z,998.43
2016-08-20T10:29:33.126Z,998.41
2016-08-20T10:30:44.012Z,998.43
2016-08-20T10:31:55.605Z,998.42
2016-08-20T10:33:07.890Z,998.37
2016-08-20T10:34:19.481Z,998.33
2016-08-20T10:35:29.655Z,998.27
2016-08-20T10:36:40.536Z,998.28
2016-08-20T10:37:51.660Z,998.33
2016-08-20T10:39:02.550Z,998.31
2016-08-20T10:40:14.144Z,998.32
2016-08-20T10:41:26.442Z,998.31
2016-08-20T10:42:38.026Z,998.28
2016-08-20T10:43:49.598Z,998.23
2016-08-20T10:45:01.197Z,998.24
2016-08-20T10:46:13.507Z,998.23
2016-08-20T10:47:23.670Z,998.25
2016-08-20T10:48:35.957Z,998.23
2016-08-20T10:49:48.230Z,998.24
2016-08-20T10:51:00.522Z,998.23
2016-08-20T10:52:12.802Z,998.22
2016-08-20T10:53:24.414Z,998.19
2016-08-20T10:54:35.996Z,998.21
2016-08-20T10:55:47.575Z,998.17
2016-08-20T10:56:59.171Z,998.18
2016-08-20T10:58:11.465Z,998.18
2016-08-20T10:59:23.069Z,998.12
2016-08-20T11:00:35.373Z,998.1
2016-08-20T11:01:47.652Z,998.1
2016-08-20T11:02:57.850Z,998.12
2016-08-20T11:04:08.743Z,998.1
2016-08-20T11:05:20.323Z,998.1
2016-08-20T11:06:31.945Z,998.07
2016-08-20T11:07:43.528Z,998.12
2016-08-20T11:08:55.788Z,998.06
2016-08-20T11:10:08.067Z,998.04
2016-08-20T11:11:19.637Z,998.06
2016-08-20T11:12:31.917Z,998.04
2016-08-20T11:13:44.190Z,998.01
2016-08-20T11:14:56.473Z,998
2016-08-20T11:16:08.765Z,998.03
2016-08-20T11:17:19.663Z,998.06
2016-08-20T11:18:31.260Z,998.03
2016-08-20T11:19:42.846Z,997.99
2016-08-20T11:20:53.739Z,998
2016-08-20T11:22:04.607Z,997.95
2016-08-20T11:23:16.209Z,997.96
2016-08-20T11:24:28.476Z,997.92
2016-08-20T11:25:40.056Z,997.86
2016-08-20T11:26:52.325Z,997.87
2016-08-20T11:28:04.599Z,997.78
2016-08-20T11:29:16.170Z,997.83
2016-08-20T11:30:27.737Z,997.78
2016-08-20T11:31:40.023Z,997.75
2016-08-20T11:32:52.322Z,997.78
2016-08-20T11:34:03.915Z,997.77
2016-08-20T11:35:16.206Z,997.79
2016-08-20T11:36:28.469Z,997.83
2016-08-20T11:37:40.091Z,997.75
2016-08-20T11:38:52.363Z,997.82
2016-08-20T11:40:04.654Z,997.85
2016-08-20T11:41:16.945Z,997.75
2016-08-20T11:42:29.223Z,997.76
2016-08-20T11:43:40.113Z,997.73
2016-08-20T11:44:52.387Z,997.71
2016-08-20T11:46:04.668Z,997.7
2016-08-20T11:47:16.281Z,997.64
2016-08-20T11:48:27.893Z,997.65
2016-08-20T11:49:40.189Z,997.66
2016-08-20T11:50:51.062Z,997.63
2016-08-20T11:52:02.638Z,997.61
2016-08-20T11:53:14.230Z,997.62
2016-08-20T11:54:26.511Z,997.62
2016-08-20T11:55:38.799Z,997.57
2016-08-20T11:56:51.076Z,997.63
2016-08-20T11:58:03.441Z,997.58
2016-08-20T11:59:15.019Z,997.64
2016-08-20T12:00:25.901Z,997.61
2016-08-20T12:01:36.780Z,997.61
2016-08-20T12:02:49.069Z,997.59
2016-08-20T12:03:59.927Z,997.6
2016-08-20T12:05:12.227Z,997.61
2016-08-20T12:06:23.095Z,997.58
2016-08-20T12:07:35.405Z,997.61
2016-08-20T12:08:47.011Z,997.61
2016-08-20T12:09:58.577Z,997.57
2016-08-20T12:11:10.168Z,997.59
2016-08-20T12:12:22.526Z,997.58
2016-08-20T12:13:35.073Z,997.5
2016-08-20T12:14:46.649Z,997.5
2016-08-20T12:15:57.548Z,997.49
2016-08-20T12:17:08.445Z,997.47
2016-08-20T12:18:20.025Z,997.51
2016-08-20T12:19:31.624Z,997.5
2016-08-20T12:20:42.502Z,997.53
2016-08-20T12:21:53.383Z,997.51
2016-08-20T12:23:05.679Z,997.49
2016-08-20T12:24:17.251Z,997.47
2016-08-20T12:25:29.553Z,997.5
2016-08-20T12:26:40.447Z,997.52
2016-08-20T12:27:52.753Z,997.52
2016-08-20T12:29:03.623Z,997.5
2016-08-20T12:30:13.811Z,997.54
2016-08-20T12:31:25.383Z,997.56
2016-08-20T12:32:36.966Z,997.55
2016-08-20T12:33:47.831Z,997.55
2016-08-20T12:35:00.114Z,997.55
2016-08-20T12:36:09.589Z,997.53
2016-08-20T12:37:21.156Z,997.49
2016-08-20T12:38:32.753Z,997.54
2016-08-20T12:39:44.333Z,997.51
2016-08-20T12:40:55.903Z,997.49
2016-08-20T12:42:08.182Z,997.52
2016-08-20T12:43:19.752Z,997.53
2016-08-20T12:44:32.033Z,997.4
2016-08-20T12:45:42.913Z,997.45
2016-08-20T12:46:55.181Z,997.46
2016-08-20T12:48:06.770Z,997.43
2016-08-20T12:49:19.048Z,997.47
2016-08-20T12:50:30.657Z,997.39
2016-08-20T12:51:42.532Z,997.43
2016-08-20T12:52:54.114Z,997.37
2016-08-20T12:54:05.695Z,997.4
2016-08-20T12:55:17.270Z,997.38
2016-08-20T12:56:28.133Z,997.45
2016-08-20T12:57:40.401Z,997.38
2016-08-20T12:58:52.019Z,997.37
2016-08-20T13:00:03.590Z,997.34
2016-08-20T13:01:15.882Z,997.37
2016-08-20T13:02:26.758Z,997.35
2016-08-20T13:03:39.050Z,997.3
2016-08-20T13:04:50.651Z,997.34
2016-08-20T13:06:01.535Z,997.33
2016-08-20T13:07:13.816Z,997.35
2016-08-20T13:08:26.082Z,997.3
2016-08-20T13:09:38.364Z,997.28
2016-08-20T13:10:50.629Z,997.25
2016-08-20T13:12:02.213Z,997.24
2016-08-20T13:13:14.498Z,997.22
2016-08-20T13:14:26.801Z,997.23
2016-08-20T13:15:38.373Z,997.25
2016-08-20T13:16:49.945Z,997.29
2016-08-20T13:18:00.822Z,997.28
2016-08-20T13:19:13.098Z,997.26
2016-08-20T13:20:24.675Z,997.25
2016-08-20T13:21:36.247Z,997.24
2016-08-20T13:22:47.818Z,997.21
2016-08-20T13:24:00.114Z,997.22
2016-08-20T13:25:11.707Z,997.23
2016-08-20T13:26:23.302Z,997.24
2016-08-20T13:27:34.877Z,997.19
2016-08-20T13:28:47.143Z,997.25
2016-08-20T13:29:58.730Z,997.23
2016-08-20T13:31:08.216Z,997.24
2016-08-20T13:32:19.799Z,997.16
2016-08-20T13:33:32.085Z,997.25
2016-08-20T13:34:43.671Z,997.23
2016-08-20T13:35:55.957Z,997.2
2016-08-20T13:37:07.526Z,997.22
2016-08-20T13:38:19.107Z,997.16
2016-08-20T13:39:31.378Z,997.12
2016-08-20T13:40:42.962Z,997.13
2016-08-20T13:41:54.537Z,997.1
2016-08-20T13:43:06.126Z,997.07
2016-08-20T13:44:18.699Z,997.06
2016-08-20T13:45:30.281Z,997.02
2016-08-20T13:46:41.868Z,996.96
2016-08-20T13:47:54.196Z,997.02
2016-08-20T13:49:05.765Z,997.01
2016-08-20T13:50:17.406Z,996.99
2016-08-20T13:51:29.014Z,997.03
2016-08-20T13:52:41.297Z,996.97
2016-08-20T13:53:53.590Z,996.95
2016-08-20T13:55:05.173Z,996.95
2016-08-20T13:56:16.049Z,996.93
2016-08-20T13:57:27.652Z,996.88
2016-08-20T13:58:39.924Z,996.91
2016-08-20T13:59:52.204Z,996.88
2016-08-20T14:01:04.490Z,996.84
2016-08-20T14:02:16.766Z,996.85
2016-08-20T14:03:26.943Z,996.85
2016-08-20T14:04:37.811Z,996.86
2016-08-20T14:05:48.682Z,996.88
2016-08-20T14:06:58.865Z,996.9
2016-08-20T14:08:11.142Z,996.87
2016-08-20T14:09:22.027Z,996.85
2016-08-20T14:10:34.301Z,996.84
2016-08-20T14:11:46.596Z,996.85
2016-08-20T14:12:58.874Z,996.85
2016-08-20T14:14:11.174Z,996.86
2016-08-20T14:15:22.059Z,996.85
2016-08-20T14:16:34.338Z,996.85
2016-08-20T14:17:46.609Z,996.85
2016-08-20T14:18:58.190Z,996.88
2016-08-20T14:20:10.475Z,996.86
2016-08-20T14:21:22.780Z,996.82
2016-08-20T14:22:34.348Z,996.84
2016-08-20T14:23:45.933Z,996.86
2016-08-20T14:24:57.603Z,996.86
2016-08-20T14:26:13.324Z,996.86
2016-08-20T14:27:25.999Z,996.81
2016-08-20T14:28:39.532Z,996.84
2016-08-20T14:29:57.839Z,996.81
2016-08-20T14:31:10.143Z,996.74
2016-08-20T14:32:21.017Z,996.77
2016-08-20T14:33:31.877Z,996.74
2016-08-20T14:34:44.332Z,996.7
2016-08-20T14:36:04.657Z,996.73
2016-08-20T14:37:19.129Z,996.72
2016-08-20T14:38:31.685Z,996.72
2016-08-20T14:39:44.751Z,996.75
2016-08-20T14:40:57.868Z,996.72
2016-08-20T14:42:10.593Z,996.71
2016-08-20T14:43:21.517Z,996.76
2016-08-20T14:44:36.928Z,996.81
2016-08-20T14:45:49.137Z,996.81
2016-08-20T14:47:03.069Z,996.79
2016-08-20T14:48:16.034Z,996.76
2016-08-20T14:49:28.317Z,996.82
2016-08-20T14:50:40.594Z,996.84
2016-08-20T14:51:52.157Z,996.77
2016-08-20T14:53:02.317Z,996.82
2016-08-20T14:54:13.898Z,996.83
2016-08-20T14:55:26.194Z,996.79
2016-08-20T14:56:37.063Z,996.78
2016-08-20T14:57:48.629Z,996.75
2016-08-20T14:59:00.906Z,996.77